sensor_id;sensor_type;location;lat;lon;timestamp;P1;durP1;ratioP1;P2;durP2;ratioP2
39094;SDS011;24840;47.508;19.376;2022-07-17T00:02:13;1.83;;;1.13;;
39094;SDS011;24840;47.508;19.376;2022-07-17T00:04:39;1.05;;;0.75;;
39094;SDS011;24840;47.508;19.376;2022-07-17T00:07:05;1.88;;;0.85;;
39094;SDS011;24840;47.508;19.376;2022-07-17T00:09:31;1.70;;;1.00;;
39094;SDS011;24840;47.508;19.376;2022-07-17T00:11:57;1.67;;;1.13;;
39094;SDS011;24840;47.508;19.376;2022-07-17T00:14:23;1.00;;;0.75;;
39094;SDS011;24840;47.508;19.376;2022-07-17T00:16:49;2.22;;;0.73;;
39094;SDS011;24840;47.508;19.376;2022-07-17T00:19:16;2.58;;;0.70;;
39094;SDS011;24840;47.508;19.376;2022-07-17T00:21:42;1.95;;;0.77;;
39094;SDS011;24840;47.508;19.376;2022-07-17T00:24:08;1.60;;;0.93;;
39094;SDS011;24840;47.508;19.376;2022-07-17T00:26:35;1.63;;;0.93;;
39094;SDS011;24840;47.508;19.376;2022-07-17T00:29:04;2.13;;;1.10;;
39094;SDS011;24840;47.508;19.376;2022-07-17T00:31:30;1.20;;;0.75;;
39094;SDS011;24840;47.508;19.376;2022-07-17T00:33:56;3.15;;;1.15;;
39094;SDS011;24840;47.508;19.376;2022-07-17T00:36:22;1.90;;;0.90;;
39094;SDS011;24840;47.508;19.376;2022-07-17T00:38:50;1.83;;;0.93;;
39094;SDS011;24840;47.508;19.376;2022-07-17T00:41:16;1.55;;;1.00;;
39094;SDS011;24840;47.508;19.376;2022-07-17T00:43:41;2.85;;;0.80;;
39094;SDS011;24840;47.508;19.376;2022-07-17T00:46:08;2.45;;;0.93;;
39094;SDS011;24840;47.508;19.376;2022-07-17T00:48:35;1.27;;;0.88;;
39094;SDS011;24840;47.508;19.376;2022-07-17T00:51:01;1.65;;;0.85;;
39094;SDS011;24840;47.508;19.376;2022-07-17T00:53:28;1.45;;;0.77;;
39094;SDS011;24840;47.508;19.376;2022-07-17T00:55:57;2.50;;;1.42;;
39094;SDS011;24840;47.508;19.376;2022-07-17T00:58:26;1.85;;;0.88;;
39094;SDS011;24840;47.508;19.376;2022-07-17T01:00:55;2.00;;;0.98;;
39094;SDS011;24840;47.508;19.376;2022-07-17T01:03:23;3.67;;;0.60;;
39094;SDS011;24840;47.508;19.376;2022-07-17T01:05:50;2.28;;;0.90;;
39094;SDS011;24840;47.508;19.376;2022-07-17T01:08:16;2.85;;;0.88;;
39094;SDS011;24840;47.508;19.376;2022-07-17T01:10:42;1.55;;;0.75;;
39094;SDS011;24840;47.508;19.376;2022-07-17T01:13:08;1.27;;;0.63;;
39094;SDS011;24840;47.508;19.376;2022-07-17T01:15:38;2.05;;;0.80;;
39094;SDS011;24840;47.508;19.376;2022-07-17T01:18:07;1.87;;;1.03;;
39094;SDS011;24840;47.508;19.376;2022-07-17T01:20:38;2.63;;;0.70;;
39094;SDS011;24840;47.508;19.376;2022-07-17T01:23:07;1.05;;;0.70;;
39094;SDS011;24840;47.508;19.376;2022-07-17T01:25:34;1.30;;;0.60;;
39094;SDS011;24840;47.508;19.376;2022-07-17T01:28:00;1.52;;;0.80;;
39094;SDS011;24840;47.508;19.376;2022-07-17T01:30:27;2.78;;;0.80;;
39094;SDS011;24840;47.508;19.376;2022-07-17T01:32:53;2.28;;;1.20;;
39094;SDS011;24840;47.508;19.376;2022-07-17T01:35:20;1.83;;;0.70;;
39094;SDS011;24840;47.508;19.376;2022-07-17T01:37:48;1.05;;;0.50;;
39094;SDS011;24840;47.508;19.376;2022-07-17T01:40:15;4.18;;;1.40;;
39094;SDS011;24840;47.508;19.376;2022-07-17T01:42:42;1.65;;;0.80;;
39094;SDS011;24840;47.508;19.376;2022-07-17T01:45:10;2.95;;;0.70;;
39094;SDS011;24840;47.508;19.376;2022-07-17T01:47:38;0.52;;;0.32;;
39094;SDS011;24840;47.508;19.376;2022-07-17T01:50:04;2.20;;;0.90;;
39094;SDS011;24840;47.508;19.376;2022-07-17T01:52:34;2.35;;;0.77;;
39094;SDS011;24840;47.508;19.376;2022-07-17T01:55:02;1.35;;;0.75;;
39094;SDS011;24840;47.508;19.376;2022-07-17T01:57:29;1.08;;;0.43;;
39094;SDS011;24840;47.508;19.376;2022-07-17T01:59:55;1.50;;;0.68;;
39094;SDS011;24840;47.508;19.376;2022-07-17T02:02:20;2.58;;;1.02;;
39094;SDS011;24840;47.508;19.376;2022-07-17T02:04:46;1.02;;;0.40;;
39094;SDS011;24840;47.508;19.376;2022-07-17T02:07:12;1.95;;;0.68;;
39094;SDS011;24840;47.508;19.376;2022-07-17T02:09:38;1.17;;;0.55;;
39094;SDS011;24840;47.508;19.376;2022-07-17T02:12:05;3.45;;;0.57;;
39094;SDS011;24840;47.508;19.376;2022-07-17T02:14:31;1.58;;;0.75;;
39094;SDS011;24840;47.508;19.376;2022-07-17T02:16:57;1.45;;;0.55;;
39094;SDS011;24840;47.508;19.376;2022-07-17T02:19:23;0.80;;;0.60;;
39094;SDS011;24840;47.508;19.376;2022-07-17T02:21:49;0.90;;;0.35;;
39094;SDS011;24840;47.508;19.376;2022-07-17T02:24:15;3.38;;;0.65;;
39094;SDS011;24840;47.508;19.376;2022-07-17T02:26:41;1.50;;;0.50;;
39094;SDS011;24840;47.508;19.376;2022-07-17T02:29:07;0.85;;;0.43;;
39094;SDS011;24840;47.508;19.376;2022-07-17T02:31:33;2.45;;;0.88;;
39094;SDS011;24840;47.508;19.376;2022-07-17T02:33:59;2.45;;;0.60;;
39094;SDS011;24840;47.508;19.376;2022-07-17T02:36:25;1.92;;;0.57;;
39094;SDS011;24840;47.508;19.376;2022-07-17T02:38:51;1.27;;;0.77;;
39094;SDS011;24840;47.508;19.376;2022-07-17T02:41:17;1.30;;;0.77;;
39094;SDS011;24840;47.508;19.376;2022-07-17T02:43:43;1.15;;;0.75;;
39094;SDS011;24840;47.508;19.376;2022-07-17T02:46:09;1.00;;;0.50;;
39094;SDS011;24840;47.508;19.376;2022-07-17T02:48:35;1.50;;;0.63;;
39094;SDS011;24840;47.508;19.376;2022-07-17T02:51:01;1.52;;;1.08;;
39094;SDS011;24840;47.508;19.376;2022-07-17T02:53:27;1.40;;;0.57;;
39094;SDS011;24840;47.508;19.376;2022-07-17T02:55:53;1.10;;;0.70;;
39094;SDS011;24840;47.508;19.376;2022-07-17T02:58:19;2.25;;;0.65;;
39094;SDS011;24840;47.508;19.376;2022-07-17T03:00:45;1.88;;;0.60;;
39094;SDS011;24840;47.508;19.376;2022-07-17T03:03:11;1.40;;;0.60;;
39094;SDS011;24840;47.508;19.376;2022-07-17T03:05:37;4.45;;;0.80;;
39094;SDS011;24840;47.508;19.376;2022-07-17T03:08:03;1.35;;;0.50;;
39094;SDS011;24840;47.508;19.376;2022-07-17T03:10:29;1.73;;;0.82;;
39094;SDS011;24840;47.508;19.376;2022-07-17T03:12:55;1.08;;;0.50;;
39094;SDS011;24840;47.508;19.376;2022-07-17T03:15:21;1.75;;;0.80;;
39094;SDS011;24840;47.508;19.376;2022-07-17T03:17:47;1.20;;;0.65;;
39094;SDS011;24840;47.508;19.376;2022-07-17T03:20:13;1.20;;;0.57;;
39094;SDS011;24840;47.508;19.376;2022-07-17T03:22:39;0.70;;;0.40;;
39094;SDS011;24840;47.508;19.376;2022-07-17T03:25:05;1.60;;;0.52;;
39094;SDS011;24840;47.508;19.376;2022-07-17T03:27:31;1.00;;;0.60;;
39094;SDS011;24840;47.508;19.376;2022-07-17T03:29:57;2.08;;;0.52;;
39094;SDS011;24840;47.508;19.376;2022-07-17T03:32:23;0.95;;;0.50;;
39094;SDS011;24840;47.508;19.376;2022-07-17T03:34:49;2.58;;;0.47;;
39094;SDS011;24840;47.508;19.376;2022-07-17T03:37:15;4.15;;;0.70;;
39094;SDS011;24840;47.508;19.376;2022-07-17T03:39:41;1.55;;;0.80;;
39094;SDS011;24840;47.508;19.376;2022-07-17T03:42:08;2.85;;;0.70;;
39094;SDS011;24840;47.508;19.376;2022-07-17T03:44:34;3.15;;;0.77;;
39094;SDS011;24840;47.508;19.376;2022-07-17T03:46:59;1.13;;;0.60;;
39094;SDS011;24840;47.508;19.376;2022-07-17T03:49:25;0.90;;;0.50;;
39094;SDS011;24840;47.508;19.376;2022-07-17T03:51:51;3.42;;;0.60;;
39094;SDS011;24840;47.508;19.376;2022-07-17T03:54:17;3.33;;;1.02;;
39094;SDS011;24840;47.508;19.376;2022-07-17T03:56:43;1.23;;;0.70;;
39094;SDS011;24840;47.508;19.376;2022-07-17T03:59:09;0.90;;;0.52;;
39094;SDS011;24840;47.508;19.376;2022-07-17T04:01:35;4.38;;;0.65;;
39094;SDS011;24840;47.508;19.376;2022-07-17T04:04:01;1.73;;;0.77;;
39094;SDS011;24840;47.508;19.376;2022-07-17T04:06:27;1.35;;;0.80;;
39094;SDS011;24840;47.508;19.376;2022-07-17T04:08:55;1.15;;;0.68;;
39094;SDS011;24840;47.508;19.376;2022-07-17T04:11:21;0.63;;;0.38;;
39094;SDS011;24840;47.508;19.376;2022-07-17T04:13:47;1.35;;;0.55;;
39094;SDS011;24840;47.508;19.376;2022-07-17T04:16:14;1.13;;;0.77;;
39094;SDS011;24840;47.508;19.376;2022-07-17T04:18:41;1.30;;;0.80;;
39094;SDS011;24840;47.508;19.376;2022-07-17T04:21:07;0.88;;;0.50;;
39094;SDS011;24840;47.508;19.376;2022-07-17T04:23:35;1.38;;;0.70;;
39094;SDS011;24840;47.508;19.376;2022-07-17T04:26:05;1.50;;;0.50;;
39094;SDS011;24840;47.508;19.376;2022-07-17T04:28:32;1.20;;;0.70;;
39094;SDS011;24840;47.508;19.376;2022-07-17T04:30:58;0.73;;;0.40;;
39094;SDS011;24840;47.508;19.376;2022-07-17T04:33:24;2.38;;;0.50;;
39094;SDS011;24840;47.508;19.376;2022-07-17T04:35:51;1.20;;;0.55;;
39094;SDS011;24840;47.508;19.376;2022-07-17T04:38:19;1.60;;;0.70;;
39094;SDS011;24840;47.508;19.376;2022-07-17T04:40:45;1.65;;;0.32;;
39094;SDS011;24840;47.508;19.376;2022-07-17T04:43:15;1.30;;;0.57;;
39094;SDS011;24840;47.508;19.376;2022-07-17T04:45:48;0.80;;;0.52;;
39094;SDS011;24840;47.508;19.376;2022-07-17T04:48:25;0.98;;;0.60;;
39094;SDS011;24840;47.508;19.376;2022-07-17T04:50:52;6.85;;;0.60;;
39094;SDS011;24840;47.508;19.376;2022-07-17T04:53:18;3.03;;;0.75;;
39094;SDS011;24840;47.508;19.376;2022-07-17T04:55:44;5.13;;;0.70;;
39094;SDS011;24840;47.508;19.376;2022-07-17T04:58:13;1.40;;;0.65;;
39094;SDS011;24840;47.508;19.376;2022-07-17T05:00:39;0.93;;;0.60;;
39094;SDS011;24840;47.508;19.376;2022-07-17T05:03:05;1.38;;;0.60;;
39094;SDS011;24840;47.508;19.376;2022-07-17T05:05:31;0.90;;;0.45;;
39094;SDS011;24840;47.508;19.376;2022-07-17T05:07:57;2.30;;;0.40;;
39094;SDS011;24840;47.508;19.376;2022-07-17T05:10:24;2.15;;;1.05;;
39094;SDS011;24840;47.508;19.376;2022-07-17T05:12:50;1.27;;;0.70;;
39094;SDS011;24840;47.508;19.376;2022-07-17T05:15:16;1.67;;;0.60;;
39094;SDS011;24840;47.508;19.376;2022-07-17T05:17:49;0.93;;;0.50;;
39094;SDS011;24840;47.508;19.376;2022-07-17T05:20:15;1.05;;;0.50;;
39094;SDS011;24840;47.508;19.376;2022-07-17T05:22:42;1.95;;;0.55;;
39094;SDS011;24840;47.508;19.376;2022-07-17T05:25:08;0.80;;;0.50;;
39094;SDS011;24840;47.508;19.376;2022-07-17T05:30:22;0.77;;;0.70;;
39094;SDS011;24840;47.508;19.376;2022-07-17T05:32:48;2.40;;;0.50;;
39094;SDS011;24840;47.508;19.376;2022-07-17T05:35:14;2.15;;;0.55;;
39094;SDS011;24840;47.508;19.376;2022-07-17T05:40:31;1.15;;;0.50;;
39094;SDS011;24840;47.508;19.376;2022-07-17T05:42:58;2.35;;;0.40;;
39094;SDS011;24840;47.508;19.376;2022-07-17T05:45:24;1.85;;;0.50;;
39094;SDS011;24840;47.508;19.376;2022-07-17T05:50:38;3.10;;;0.60;;
39094;SDS011;24840;47.508;19.376;2022-07-17T05:53:04;1.20;;;1.10;;
39094;SDS011;24840;47.508;19.376;2022-07-17T05:55:31;0.80;;;0.50;;
39094;SDS011;24840;47.508;19.376;2022-07-17T05:57:58;3.60;;;0.32;;
39094;SDS011;24840;47.508;19.376;2022-07-17T06:00:25;2.30;;;0.65;;
39094;SDS011;24840;47.508;19.376;2022-07-17T06:02:51;1.98;;;0.85;;
39094;SDS011;24840;47.508;19.376;2022-07-17T06:05:17;6.65;;;0.80;;
39094;SDS011;24840;47.508;19.376;2022-07-17T06:07:49;1.23;;;0.40;;
39094;SDS011;24840;47.508;19.376;2022-07-17T06:12:41;2.88;;;0.73;;
39094;SDS011;24840;47.508;19.376;2022-07-17T06:15:07;1.52;;;0.35;;
39094;SDS011;24840;47.508;19.376;2022-07-17T06:17:37;2.45;;;0.70;;
39094;SDS011;24840;47.508;19.376;2022-07-17T06:20:04;2.08;;;0.60;;
39094;SDS011;24840;47.508;19.376;2022-07-17T06:22:30;4.82;;;0.63;;
39094;SDS011;24840;47.508;19.376;2022-07-17T06:24:56;2.40;;;0.60;;
39094;SDS011;24840;47.508;19.376;2022-07-17T06:27:22;2.40;;;0.43;;
39094;SDS011;24840;47.508;19.376;2022-07-17T06:29:49;1.38;;;0.80;;
39094;SDS011;24840;47.508;19.376;2022-07-17T06:32:15;2.05;;;0.70;;
39094;SDS011;24840;47.508;19.376;2022-07-17T06:34:42;3.63;;;0.70;;
39094;SDS011;24840;47.508;19.376;2022-07-17T06:37:08;4.68;;;0.82;;
39094;SDS011;24840;47.508;19.376;2022-07-17T06:39:34;4.07;;;0.70;;
39094;SDS011;24840;47.508;19.376;2022-07-17T06:42:01;7.50;;;0.70;;
39094;SDS011;24840;47.508;19.376;2022-07-17T06:44:27;2.40;;;0.80;;
39094;SDS011;24840;47.508;19.376;2022-07-17T06:46:53;2.25;;;0.43;;
39094;SDS011;24840;47.508;19.376;2022-07-17T06:49:19;1.60;;;0.50;;
39094;SDS011;24840;47.508;19.376;2022-07-17T06:51:45;2.15;;;0.57;;
39094;SDS011;24840;47.508;19.376;2022-07-17T06:54:13;4.40;;;0.50;;
39094;SDS011;24840;47.508;19.376;2022-07-17T06:56:39;1.20;;;0.40;;
39094;SDS011;24840;47.508;19.376;2022-07-17T06:59:06;3.58;;;0.60;;
39094;SDS011;24840;47.508;19.376;2022-07-17T07:01:35;1.48;;;0.70;;
39094;SDS011;24840;47.508;19.376;2022-07-17T07:04:03;4.53;;;0.90;;
39094;SDS011;24840;47.508;19.376;2022-07-17T07:06:29;2.78;;;0.45;;
39094;SDS011;24840;47.508;19.376;2022-07-17T07:08:56;2.35;;;0.45;;
39094;SDS011;24840;47.508;19.376;2022-07-17T07:11:22;4.00;;;1.00;;
39094;SDS011;24840;47.508;19.376;2022-07-17T07:13:49;3.08;;;0.35;;
39094;SDS011;24840;47.508;19.376;2022-07-17T07:16:15;0.95;;;0.40;;
39094;SDS011;24840;47.508;19.376;2022-07-17T07:18:41;1.70;;;0.85;;
39094;SDS011;24840;47.508;19.376;2022-07-17T07:21:07;1.65;;;0.40;;
39094;SDS011;24840;47.508;19.376;2022-07-17T07:23:34;1.00;;;0.50;;
39094;SDS011;24840;47.508;19.376;2022-07-17T07:26:04;0.80;;;0.40;;
39094;SDS011;24840;47.508;19.376;2022-07-17T07:28:30;2.90;;;0.63;;
39094;SDS011;24840;47.508;19.376;2022-07-17T07:30:56;2.28;;;0.55;;
39094;SDS011;24840;47.508;19.376;2022-07-17T07:33:22;2.95;;;0.80;;
39094;SDS011;24840;47.508;19.376;2022-07-17T07:35:48;8.02;;;0.88;;
39094;SDS011;24840;47.508;19.376;2022-07-17T07:38:15;3.50;;;0.40;;
39094;SDS011;24840;47.508;19.376;2022-07-17T07:40:41;2.03;;;0.70;;
39094;SDS011;24840;47.508;19.376;2022-07-17T07:43:07;2.63;;;0.75;;
39094;SDS011;24840;47.508;19.376;2022-07-17T07:45:33;2.50;;;0.60;;
39094;SDS011;24840;47.508;19.376;2022-07-17T07:48:02;2.15;;;0.40;;
39094;SDS011;24840;47.508;19.376;2022-07-17T07:50:34;4.50;;;0.80;;
39094;SDS011;24840;47.508;19.376;2022-07-17T07:53:00;1.92;;;0.70;;
39094;SDS011;24840;47.508;19.376;2022-07-17T07:55:26;1.08;;;0.40;;
39094;SDS011;24840;47.508;19.376;2022-07-17T07:58:05;3.20;;;0.38;;
39094;SDS011;24840;47.508;19.376;2022-07-17T08:00:36;0.98;;;0.40;;
39094;SDS011;24840;47.508;19.376;2022-07-17T08:03:03;0.85;;;0.47;;
39094;SDS011;24840;47.508;19.376;2022-07-17T08:05:29;3.50;;;0.93;;
39094;SDS011;24840;47.508;19.376;2022-07-17T08:07:56;3.80;;;2.72;;
39094;SDS011;24840;47.508;19.376;2022-07-17T08:10:23;4.45;;;2.40;;
39094;SDS011;24840;47.508;19.376;2022-07-17T08:12:49;3.03;;;1.83;;
39094;SDS011;24840;47.508;19.376;2022-07-17T08:15:17;1.73;;;0.88;;
39094;SDS011;24840;47.508;19.376;2022-07-17T08:17:47;3.00;;;0.77;;
39094;SDS011;24840;47.508;19.376;2022-07-17T08:20:15;1.83;;;1.13;;
39094;SDS011;24840;47.508;19.376;2022-07-17T08:22:43;2.83;;;0.85;;
39094;SDS011;24840;47.508;19.376;2022-07-17T08:25:10;2.90;;;0.52;;
39094;SDS011;24840;47.508;19.376;2022-07-17T08:27:37;4.25;;;0.70;;
39094;SDS011;24840;47.508;19.376;2022-07-17T08:30:05;1.33;;;0.75;;
39094;SDS011;24840;47.508;19.376;2022-07-17T08:32:32;2.85;;;0.68;;
39094;SDS011;24840;47.508;19.376;2022-07-17T08:34:58;1.02;;;0.50;;
39094;SDS011;24840;47.508;19.376;2022-07-17T08:37:25;2.22;;;0.50;;
39094;SDS011;24840;47.508;19.376;2022-07-17T08:39:51;3.47;;;0.90;;
39094;SDS011;24840;47.508;19.376;2022-07-17T08:42:17;2.90;;;0.68;;
39094;SDS011;24840;47.508;19.376;2022-07-17T08:44:44;0.90;;;0.40;;
39094;SDS011;24840;47.508;19.376;2022-07-17T08:47:11;1.35;;;0.75;;
39094;SDS011;24840;47.508;19.376;2022-07-17T08:49:40;1.42;;;0.75;;
39094;SDS011;24840;47.508;19.376;2022-07-17T08:52:10;3.72;;;0.68;;
39094;SDS011;24840;47.508;19.376;2022-07-17T08:54:37;3.00;;;1.05;;
39094;SDS011;24840;47.508;19.376;2022-07-17T08:57:04;3.78;;;0.80;;
39094;SDS011;24840;47.508;19.376;2022-07-17T08:59:32;4.25;;;0.80;;
39094;SDS011;24840;47.508;19.376;2022-07-17T09:01:59;1.88;;;1.10;;
39094;SDS011;24840;47.508;19.376;2022-07-17T09:04:25;2.28;;;1.33;;
39094;SDS011;24840;47.508;19.376;2022-07-17T09:09:48;2.25;;;1.27;;
39094;SDS011;24840;47.508;19.376;2022-07-17T09:12:15;1.52;;;0.80;;
39094;SDS011;24840;47.508;19.376;2022-07-17T09:14:41;2.58;;;1.38;;
39094;SDS011;24840;47.508;19.376;2022-07-17T09:17:08;2.65;;;0.85;;
39094;SDS011;24840;47.508;19.376;2022-07-17T09:19:42;3.80;;;1.15;;
39094;SDS011;24840;47.508;19.376;2022-07-17T09:22:13;1.25;;;0.63;;
39094;SDS011;24840;47.508;19.376;2022-07-17T09:32:37;2.55;;;0.90;;
39094;SDS011;24840;47.508;19.376;2022-07-17T09:35:05;1.35;;;0.85;;
39094;SDS011;24840;47.508;19.376;2022-07-17T09:37:35;1.77;;;1.40;;
39094;SDS011;24840;47.508;19.376;2022-07-17T09:40:03;2.85;;;0.90;;
39094;SDS011;24840;47.508;19.376;2022-07-17T09:42:34;2.70;;;1.40;;
39094;SDS011;24840;47.508;19.376;2022-07-17T09:45:01;1.48;;;1.17;;
39094;SDS011;24840;47.508;19.376;2022-07-17T09:47:31;1.85;;;1.42;;
39094;SDS011;24840;47.508;19.376;2022-07-17T09:49:58;3.70;;;2.50;;
39094;SDS011;24840;47.508;19.376;2022-07-17T09:52:26;6.22;;;4.50;;
39094;SDS011;24840;47.508;19.376;2022-07-17T09:54:55;3.28;;;0.88;;
39094;SDS011;24840;47.508;19.376;2022-07-17T09:59:59;4.18;;;2.53;;
39094;SDS011;24840;47.508;19.376;2022-07-17T10:02:31;1.20;;;1.00;;
39094;SDS011;24840;47.508;19.376;2022-07-17T10:04:58;3.50;;;1.73;;
39094;SDS011;24840;47.508;19.376;2022-07-17T10:09:54;1.83;;;1.15;;
39094;SDS011;24840;47.508;19.376;2022-07-17T10:12:20;3.78;;;1.33;;
39094;SDS011;24840;47.508;19.376;2022-07-17T10:14:47;2.85;;;1.38;;
39094;SDS011;24840;47.508;19.376;2022-07-17T10:17:14;1.23;;;1.13;;
39094;SDS011;24840;47.508;19.376;2022-07-17T10:19:52;1.95;;;1.30;;
39094;SDS011;24840;47.508;19.376;2022-07-17T10:22:19;3.42;;;1.50;;
39094;SDS011;24840;47.508;19.376;2022-07-17T10:27:25;2.90;;;1.08;;
39094;SDS011;24840;47.508;19.376;2022-07-17T10:30:00;1.98;;;0.90;;
39094;SDS011;24840;47.508;19.376;2022-07-17T10:32:34;1.10;;;1.00;;
39094;SDS011;24840;47.508;19.376;2022-07-17T10:35:05;3.10;;;1.70;;
39094;SDS011;24840;47.508;19.376;2022-07-17T10:37:42;4.35;;;1.70;;
39094;SDS011;24840;47.508;19.376;2022-07-17T10:40:14;3.47;;;1.38;;
39094;SDS011;24840;47.508;19.376;2022-07-17T10:43:02;3.15;;;1.17;;
39094;SDS011;24840;47.508;19.376;2022-07-17T10:45:35;2.55;;;1.23;;
39094;SDS011;24840;47.508;19.376;2022-07-17T10:48:14;2.45;;;1.10;;
39094;SDS011;24840;47.508;19.376;2022-07-17T10:53:22;2.55;;;1.10;;
39094;SDS011;24840;47.508;19.376;2022-07-17T10:55:57;2.58;;;1.25;;
39094;SDS011;24840;47.508;19.376;2022-07-17T11:01:02;3.58;;;1.25;;
39094;SDS011;24840;47.508;19.376;2022-07-17T11:03:32;2.45;;;1.48;;
39094;SDS011;24840;47.508;19.376;2022-07-17T11:06:08;3.88;;;1.60;;
39094;SDS011;24840;47.508;19.376;2022-07-17T11:11:47;1.75;;;1.27;;
39094;SDS011;24840;47.508;19.376;2022-07-17T11:14:20;3.20;;;1.38;;
39094;SDS011;24840;47.508;19.376;2022-07-17T11:22:38;2.05;;;1.33;;
39094;SDS011;24840;47.508;19.376;2022-07-17T11:34:06;3.92;;;1.55;;
39094;SDS011;24840;47.508;19.376;2022-07-17T11:36:41;3.20;;;1.38;;
39094;SDS011;24840;47.508;19.376;2022-07-17T11:39:12;2.05;;;1.85;;
39094;SDS011;24840;47.508;19.376;2022-07-17T11:41:43;3.17;;;1.52;;
39094;SDS011;24840;47.508;19.376;2022-07-17T11:44:12;2.22;;;1.70;;
39094;SDS011;24840;47.508;19.376;2022-07-17T11:46:42;1.60;;;1.50;;
39094;SDS011;24840;47.508;19.376;2022-07-17T11:51:58;1.25;;;1.15;;
39094;SDS011;24840;47.508;19.376;2022-07-17T11:54:31;2.13;;;1.42;;
39094;SDS011;24840;47.508;19.376;2022-07-17T11:56:57;1.95;;;1.40;;
39094;SDS011;24840;47.508;19.376;2022-07-17T11:59:29;1.83;;;1.73;;
39094;SDS011;24840;47.508;19.376;2022-07-17T12:02:05;1.50;;;1.40;;
39094;SDS011;24840;47.508;19.376;2022-07-17T12:04:33;3.40;;;2.20;;
39094;SDS011;24840;47.508;19.376;2022-07-17T12:06:59;2.05;;;1.85;;
39094;SDS011;24840;47.508;19.376;2022-07-17T12:09:44;2.05;;;1.63;;
39094;SDS011;24840;47.508;19.376;2022-07-17T12:12:25;4.22;;;1.67;;
39094;SDS011;24840;47.508;19.376;2022-07-17T12:23:09;2.92;;;1.65;;
39094;SDS011;24840;47.508;19.376;2022-07-17T12:26:09;1.88;;;1.40;;
39094;SDS011;24840;47.508;19.376;2022-07-17T12:28:43;2.20;;;1.73;;
39094;SDS011;24840;47.508;19.376;2022-07-17T12:31:09;2.67;;;1.20;;
39094;SDS011;24840;47.508;19.376;2022-07-17T12:33:37;3.42;;;1.45;;
39094;SDS011;24840;47.508;19.376;2022-07-17T12:36:03;2.13;;;1.60;;
39094;SDS011;24840;47.508;19.376;2022-07-17T12:41:21;1.92;;;1.40;;
39094;SDS011;24840;47.508;19.376;2022-07-17T12:43:47;1.98;;;1.60;;
39094;SDS011;24840;47.508;19.376;2022-07-17T12:46:13;2.50;;;1.58;;
39094;SDS011;24840;47.508;19.376;2022-07-17T12:51:10;2.70;;;1.97;;
39094;SDS011;24840;47.508;19.376;2022-07-17T12:53:39;2.47;;;1.80;;
39094;SDS011;24840;47.508;19.376;2022-07-17T12:56:06;2.15;;;1.48;;
39094;SDS011;24840;47.508;19.376;2022-07-17T12:58:32;3.95;;;1.55;;
39094;SDS011;24840;47.508;19.376;2022-07-17T13:00:59;3.10;;;1.70;;
39094;SDS011;24840;47.508;19.376;2022-07-17T13:03:26;1.63;;;1.40;;
39094;SDS011;24840;47.508;19.376;2022-07-17T13:05:52;3.75;;;1.67;;
39094;SDS011;24840;47.508;19.376;2022-07-17T13:08:19;3.10;;;1.45;;
39094;SDS011;24840;47.508;19.376;2022-07-17T13:10:45;2.13;;;1.75;;
39094;SDS011;24840;47.508;19.376;2022-07-17T13:13:15;1.42;;;1.33;;
39094;SDS011;24840;47.508;19.376;2022-07-17T13:15:41;1.60;;;1.50;;
39094;SDS011;24840;47.508;19.376;2022-07-17T13:18:08;1.92;;;1.42;;
39094;SDS011;24840;47.508;19.376;2022-07-17T13:20:34;2.85;;;1.83;;
39094;SDS011;24840;47.508;19.376;2022-07-17T13:23:00;1.50;;;1.40;;
39094;SDS011;24840;47.508;19.376;2022-07-17T13:25:27;1.42;;;1.33;;
39094;SDS011;24840;47.508;19.376;2022-07-17T13:28:01;2.45;;;1.70;;
39094;SDS011;24840;47.508;19.376;2022-07-17T13:30:28;1.98;;;1.48;;
39094;SDS011;24840;47.508;19.376;2022-07-17T13:32:57;1.50;;;1.40;;
39094;SDS011;24840;47.508;19.376;2022-07-17T13:35:25;2.50;;;1.35;;
39094;SDS011;24840;47.508;19.376;2022-07-17T13:37:51;3.17;;;1.38;;
39094;SDS011;24840;47.508;19.376;2022-07-17T13:40:17;3.30;;;1.42;;
39094;SDS011;24840;47.508;19.376;2022-07-17T13:42:44;4.00;;;1.80;;
39094;SDS011;24840;47.508;19.376;2022-07-17T13:45:11;2.17;;;1.58;;
39094;SDS011;24840;47.508;19.376;2022-07-17T13:47:45;3.63;;;1.95;;
39094;SDS011;24840;47.508;19.376;2022-07-17T13:50:11;3.67;;;1.25;;
39094;SDS011;24840;47.508;19.376;2022-07-17T13:52:37;2.70;;;1.20;;
39094;SDS011;24840;47.508;19.376;2022-07-17T13:55:04;11.02;;;2.42;;
39094;SDS011;24840;47.508;19.376;2022-07-17T14:00:12;4.68;;;1.50;;
39094;SDS011;24840;47.508;19.376;2022-07-17T14:02:39;3.03;;;1.88;;
39094;SDS011;24840;47.508;19.376;2022-07-17T14:05:07;4.82;;;1.73;;
39094;SDS011;24840;47.508;19.376;2022-07-17T14:07:34;1.83;;;1.65;;
39094;SDS011;24840;47.508;19.376;2022-07-17T14:10:02;1.70;;;1.60;;
39094;SDS011;24840;47.508;19.376;2022-07-17T14:12:29;2.55;;;1.17;;
39094;SDS011;24840;47.508;19.376;2022-07-17T14:14:57;1.73;;;1.25;;
39094;SDS011;24840;47.508;19.376;2022-07-17T14:17:23;1.58;;;1.48;;
39094;SDS011;24840;47.508;19.376;2022-07-17T14:19:49;2.15;;;1.67;;
39094;SDS011;24840;47.508;19.376;2022-07-17T14:22:15;3.38;;;1.60;;
39094;SDS011;24840;47.508;19.376;2022-07-17T14:24:41;1.83;;;1.20;;
39094;SDS011;24840;47.508;19.376;2022-07-17T14:27:07;4.88;;;1.65;;
39094;SDS011;24840;47.508;19.376;2022-07-17T14:29:33;2.13;;;1.50;;
39094;SDS011;24840;47.508;19.376;2022-07-17T14:31:59;2.17;;;1.98;;
39094;SDS011;24840;47.508;19.376;2022-07-17T14:34:25;5.15;;;1.92;;
39094;SDS011;24840;47.508;19.376;2022-07-17T14:36:51;3.47;;;1.90;;
39094;SDS011;24840;47.508;19.376;2022-07-17T14:39:18;2.47;;;1.45;;
39094;SDS011;24840;47.508;19.376;2022-07-17T14:41:44;1.35;;;1.25;;
39094;SDS011;24840;47.508;19.376;2022-07-17T14:44:10;1.70;;;1.30;;
39094;SDS011;24840;47.508;19.376;2022-07-17T14:46:36;1.65;;;1.33;;
39094;SDS011;24840;47.508;19.376;2022-07-17T14:49:03;4.10;;;1.23;;
39094;SDS011;24840;47.508;19.376;2022-07-17T14:51:29;5.85;;;1.70;;
39094;SDS011;24840;47.508;19.376;2022-07-17T14:53:56;1.20;;;1.10;;
39094;SDS011;24840;47.508;19.376;2022-07-17T14:56:21;1.88;;;1.13;;
39094;SDS011;24840;47.508;19.376;2022-07-17T14:58:48;2.72;;;1.58;;
39094;SDS011;24840;47.508;19.376;2022-07-17T15:01:14;1.90;;;1.58;;
39094;SDS011;24840;47.508;19.376;2022-07-17T15:03:40;5.35;;;1.65;;
39094;SDS011;24840;47.508;19.376;2022-07-17T15:06:07;4.32;;;1.73;;
39094;SDS011;24840;47.508;19.376;2022-07-17T15:08:33;2.92;;;1.33;;
39094;SDS011;24840;47.508;19.376;2022-07-17T15:10:59;11.43;;;2.67;;
39094;SDS011;24840;47.508;19.376;2022-07-17T15:13:25;1.70;;;1.15;;
39094;SDS011;24840;47.508;19.376;2022-07-17T15:16:01;8.98;;;2.10;;
39094;SDS011;24840;47.508;19.376;2022-07-17T15:18:34;5.70;;;1.00;;
39094;SDS011;24840;47.508;19.376;2022-07-17T15:21:00;1.55;;;1.27;;
39094;SDS011;24840;47.508;19.376;2022-07-17T15:23:27;2.55;;;1.23;;
39094;SDS011;24840;47.508;19.376;2022-07-17T15:25:57;1.15;;;1.00;;
39094;SDS011;24840;47.508;19.376;2022-07-17T15:28:23;1.15;;;1.05;;
39094;SDS011;24840;47.508;19.376;2022-07-17T15:30:52;1.42;;;1.00;;
39094;SDS011;24840;47.508;19.376;2022-07-17T15:33:21;1.75;;;1.20;;
39094;SDS011;24840;47.508;19.376;2022-07-17T15:35:48;1.60;;;1.23;;
39094;SDS011;24840;47.508;19.376;2022-07-17T15:38:14;1.45;;;1.20;;
39094;SDS011;24840;47.508;19.376;2022-07-17T15:40:40;1.17;;;1.02;;
39094;SDS011;24840;47.508;19.376;2022-07-17T15:43:17;4.13;;;1.10;;
39094;SDS011;24840;47.508;19.376;2022-07-17T15:45:47;2.03;;;0.98;;
39094;SDS011;24840;47.508;19.376;2022-07-17T15:48:29;3.10;;;1.27;;